Fort Smith Regional Airport Fort Smith US
ICAO: KFSM
IATA: FSM
Category: Large
Scheduled Services: Yes

Elevation: 469 ft
TransAlt. 18000 ft.

Airport Communications:
RAZORBACK APP:35.357
RAZORBACK APP:120.175
ATIS:126.3
CLNC DEL:133.85
CTAF:118.3
RAZORBACK DEP:120.9
GND:121.9
JONESBORO RDO:122.2
TWR:118.3
UNICOM:122.95

KFSM Zoom In..

Runways:

(A) RW 01 length 5001 ft width 150 ft
---- / hdg 16

(B) RW 07 length 8017 ft width 150 ft
ILS 111.30 / hdg 76

(C) RW 19 length 5001 ft width 150 ft
---- / hdg 196

(D) RW 25 length 8017 ft width 150 ft
ILS 111.30 / hdg 256

Location; KFSM
Day. 21 / Time. 04.53 Zulu
* Altimeter: 29.83
* Temperature: 32° c. 89.6°f.
* Wind from: 000° Speed 00 kn.
Dewpoint: 25° c.
Visibility: 10 Statute Miles.
Clouds: Clear (automated report).

KFSM 210453Z 00000KT 10SM CLR 32/25 A2983 RMK AO2 SLP095 T03170250


Wind - Calm.

 
 
jpsmedia.com for Web Design worldairports.se 2018   terms of use